SKW1031 KIAH-MMMY
Flight info
| Callsign | SKW1031 |
|---|---|
| Flight time | 1h 15m |
| Altitude | 32000 |
| Route | RITAA7 PSX DCT REX DCT ITPIS ITPIS1A |
| Aircraft | E75L/M-SDE3GILORVW/S |
Departure
| Time | 2026-04-26 16:41 |
|---|---|
| Airport | George Bush Intercontinental Airport (KIAH) |
Arrival
| Time | 2026-04-26 17:56 |
|---|---|
| Airport | Monterrey International Airport (MMMY) |
| Time | Latitude | Longitude | Altitude | Speed | Heading |
|---|---|---|---|---|---|
| 2026-04-26 16:01 | 29.98493 | -95.34586 | 105 ft | 0 kts | 44° |
| 2026-04-26 16:27 | 29.98482 | -95.34599 | 104 ft | 2 kts | 49° |
| 2026-04-26 16:27 | 29.98473 | -95.34615 | 103 ft | 2 kts | 71° |
| 2026-04-26 16:28 | 29.98476 | -95.34630 | 105 ft | 1 kts | 130° |
| 2026-04-26 16:28 | 29.98476 | -95.34631 | 105 ft | 0 kts | 130° |
| 2026-04-26 16:32 | 29.98475 | -95.34629 | 105 ft | 1 kts | 132° |
| 2026-04-26 16:32 | 29.98459 | -95.34621 | 104 ft | 3 kts | 170° |
| 2026-04-26 16:32 | 29.98432 | -95.34621 | 105 ft | 5 kts | 182° |
| 2026-04-26 16:33 | 29.98392 | -95.34625 | 105 ft | 6 kts | 199° |
| 2026-04-26 16:33 | 29.98377 | -95.34670 | 105 ft | 7 kts | 270° |
| 2026-04-26 16:33 | 29.98377 | -95.34737 | 105 ft | 9 kts | 271° |
| 2026-04-26 16:33 | 29.98379 | -95.34822 | 105 ft | 12 kts | 270° |
| 2026-04-26 16:34 | 29.98379 | -95.34922 | 105 ft | 13 kts | 270° |
| 2026-04-26 16:34 | 29.98380 | -95.35038 | 105 ft | 15 kts | 270° |
| 2026-04-26 16:34 | 29.98381 | -95.35161 | 105 ft | 10 kts | 273° |
| 2026-04-26 16:34 | 29.98422 | -95.35226 | 105 ft | 11 kts | 328° |
| 2026-04-26 16:35 | 29.98496 | -95.35271 | 105 ft | 13 kts | 332° |
| 2026-04-26 16:35 | 29.98586 | -95.35327 | 105 ft | 15 kts | 332° |
| 2026-04-26 16:35 | 29.98688 | -95.35390 | 105 ft | 17 kts | 332° |
| 2026-04-26 16:35 | 29.98799 | -95.35460 | 105 ft | 19 kts | 332° |
| 2026-04-26 16:36 | 29.98878 | -95.35526 | 105 ft | 11 kts | 288° |
| 2026-04-26 16:36 | 29.98857 | -95.35616 | 103 ft | 13 kts | 242° |
| 2026-04-26 16:36 | 29.98824 | -95.35685 | 104 ft | 1 kts | 240° |
| 2026-04-26 16:37 | 29.98823 | -95.35688 | 104 ft | 2 kts | 240° |
| 2026-04-26 16:37 | 29.98801 | -95.35733 | 106 ft | 11 kts | 240° |
| 2026-04-26 16:37 | 29.98751 | -95.35838 | 106 ft | 17 kts | 242° |
| 2026-04-26 16:38 | 29.98750 | -95.35906 | 106 ft | 8 kts | 324° |
| 2026-04-26 16:38 | 29.98808 | -95.35942 | 106 ft | 11 kts | 333° |
| 2026-04-26 16:38 | 29.98836 | -95.35981 | 104 ft | 6 kts | 279° |
| 2026-04-26 16:38 | 29.98819 | -95.36031 | 106 ft | 6 kts | 240° |
| 2026-04-26 16:39 | 29.98815 | -95.36040 | 104 ft | 0 kts | 242° |
| 2026-04-26 16:39 | 29.98806 | -95.36059 | 106 ft | 6 kts | 242° |
| 2026-04-26 16:39 | 29.98777 | -95.36119 | 106 ft | 6 kts | 230° |
| 2026-04-26 16:40 | 29.98745 | -95.36118 | 105 ft | 4 kts | 152° |
| 2026-04-26 16:40 | 29.98689 | -95.36084 | 105 ft | 29 kts | 152° |
| 2026-04-26 16:40 | 29.98238 | -95.35809 | 104 ft | 115 kts | 152° |
| 2026-04-26 16:40 | 29.97301 | -95.35235 | 227 ft | 180 kts | 152° |
| 2026-04-26 16:41 | 29.96177 | -95.34539 | 1422 ft | 186 kts | 154° |
| 2026-04-26 16:41 | 29.94985 | -95.33763 | 2422 ft | 206 kts | 146° |
| 2026-04-26 16:41 | 29.93949 | -95.32561 | 3504 ft | 222 kts | 121° |
| 2026-04-26 16:41 | 29.93295 | -95.30881 | 4736 ft | 231 kts | 116° |
| 2026-04-26 16:42 | 29.92549 | -95.29109 | 5880 ft | 249 kts | 121° |
| 2026-04-26 16:42 | 29.91637 | -95.27396 | 6967 ft | 263 kts | 126° |
| 2026-04-26 16:42 | 29.90431 | -95.25726 | 7795 ft | 278 kts | 132° |
| 2026-04-26 16:42 | 29.89109 | -95.24017 | 8428 ft | 291 kts | 132° |
| 2026-04-26 16:43 | 29.87809 | -95.22188 | 9162 ft | 298 kts | 126° |
| 2026-04-26 16:43 | 29.86593 | -95.20263 | 9834 ft | 304 kts | 125° |
| 2026-04-26 16:43 | 29.85337 | -95.18251 | 10419 ft | 311 kts | 125° |
| 2026-04-26 16:43 | 29.84039 | -95.16231 | 11004 ft | 317 kts | 128° |
| 2026-04-26 16:44 | 29.82592 | -95.14272 | 11620 ft | 323 kts | 133° |
| 2026-04-26 16:44 | 29.81012 | -95.12400 | 12228 ft | 328 kts | 140° |
| 2026-04-26 16:44 | 29.79204 | -95.10723 | 12663 ft | 339 kts | 143° |
| 2026-04-26 16:44 | 29.77253 | -95.09231 | 13154 ft | 341 kts | 159° |
| 2026-04-26 16:45 | 29.74944 | -95.08687 | 13792 ft | 339 kts | 184° |
| 2026-04-26 16:45 | 29.72679 | -95.09282 | 14387 ft | 334 kts | 209° |
| 2026-04-26 16:45 | 29.70802 | -95.10837 | 15027 ft | 331 kts | 225° |
| 2026-04-26 16:45 | 29.69118 | -95.12665 | 15663 ft | 333 kts | 225° |
| 2026-04-26 16:46 | 29.67351 | -95.14396 | 16223 ft | 336 kts | 223° |
| 2026-04-26 16:46 | 29.65604 | -95.16147 | 16710 ft | 336 kts | 227° |
| 2026-04-26 16:46 | 29.63905 | -95.17990 | 17215 ft | 338 kts | 227° |
| 2026-04-26 16:46 | 29.62194 | -95.19865 | 17745 ft | 339 kts | 228° |
| 2026-04-26 16:47 | 29.60542 | -95.21728 | 18246 ft | 340 kts | 229° |
| 2026-04-26 16:47 | 29.58848 | -95.23727 | 18705 ft | 341 kts | 232° |
| 2026-04-26 16:47 | 29.57343 | -95.25788 | 19168 ft | 342 kts | 234° |
| 2026-04-26 16:47 | 29.55833 | -95.27907 | 19635 ft | 344 kts | 235° |
| 2026-04-26 16:48 | 29.54317 | -95.30057 | 20104 ft | 347 kts | 235° |
| 2026-04-26 16:48 | 29.52798 | -95.32215 | 20577 ft | 348 kts | 235° |
| 2026-04-26 16:48 | 29.51261 | -95.34396 | 21069 ft | 351 kts | 235° |
| 2026-04-26 16:48 | 29.49724 | -95.36576 | 21562 ft | 354 kts | 235° |
| 2026-04-26 16:49 | 29.48160 | -95.38790 | 22087 ft | 356 kts | 235° |
| 2026-04-26 16:49 | 29.46612 | -95.40982 | 22590 ft | 359 kts | 235° |
| 2026-04-26 16:49 | 29.45026 | -95.43226 | 23114 ft | 361 kts | 236° |
| 2026-04-26 16:49 | 29.43438 | -95.45472 | 23613 ft | 364 kts | 236° |
| 2026-04-26 16:50 | 29.41835 | -95.47735 | 24056 ft | 366 kts | 236° |
| 2026-04-26 16:50 | 29.40230 | -95.50002 | 24501 ft | 367 kts | 236° |
| 2026-04-26 16:50 | 29.38609 | -95.52291 | 24955 ft | 369 kts | 236° |
| 2026-04-26 16:50 | 29.36984 | -95.54584 | 25421 ft | 371 kts | 236° |
| 2026-04-26 16:51 | 29.35365 | -95.56865 | 25890 ft | 373 kts | 236° |
| 2026-04-26 16:51 | 29.33726 | -95.59174 | 26378 ft | 374 kts | 237° |
| 2026-04-26 16:51 | 29.32083 | -95.61488 | 26873 ft | 375 kts | 237° |
| 2026-04-26 16:51 | 29.30428 | -95.63817 | 27367 ft | 375 kts | 237° |
| 2026-04-26 16:52 | 29.28773 | -95.66145 | 27869 ft | 375 kts | 237° |
| 2026-04-26 16:52 | 29.28241 | -95.66892 | 28029 ft | 375 kts | 237° |
| 2026-04-26 16:52 | 29.25496 | -95.70750 | 28889 ft | 374 kts | 237° |
| 2026-04-26 16:52 | 29.23854 | -95.73056 | 29410 ft | 373 kts | 238° |
| 2026-04-26 16:53 | 29.22212 | -95.75356 | 29912 ft | 372 kts | 237° |
| 2026-04-26 16:53 | 29.20370 | -95.77501 | 30258 ft | 380 kts | 230° |
| 2026-04-26 16:53 | 29.18399 | -95.79495 | 30538 ft | 385 kts | 229° |
| 2026-04-26 16:53 | 29.16333 | -95.81500 | 30822 ft | 389 kts | 227° |
| 2026-04-26 16:54 | 29.14140 | -95.83371 | 31107 ft | 395 kts | 223° |
| 2026-04-26 16:54 | 29.11903 | -95.85177 | 31397 ft | 398 kts | 223° |
| 2026-04-26 16:54 | 29.09623 | -95.86991 | 31684 ft | 400 kts | 223° |
| 2026-04-26 16:54 | 29.07313 | -95.88823 | 31809 ft | 406 kts | 223° |
| 2026-04-26 16:55 | 29.02581 | -95.92568 | 31893 ft | 418 kts | 223° |
| 2026-04-26 16:55 | 28.97833 | -95.96322 | 31867 ft | 417 kts | 223° |
| 2026-04-26 16:56 | 28.90663 | -96.01987 | 31876 ft | 417 kts | 223° |
| 2026-04-26 16:57 | 28.85915 | -96.05733 | 31868 ft | 417 kts | 223° |
| 2026-04-26 16:57 | 28.78750 | -96.11377 | 31895 ft | 417 kts | 223° |
| 2026-04-26 16:58 | 28.75550 | -96.13894 | 31895 ft | 417 kts | 223° |
| 2026-04-26 16:59 | 28.66779 | -96.20786 | 31899 ft | 418 kts | 223° |
| 2026-04-26 17:00 | 28.58025 | -96.27649 | 31892 ft | 418 kts | 223° |
| 2026-04-26 17:00 | 28.50831 | -96.33280 | 31887 ft | 418 kts | 222° |
| 2026-04-26 17:01 | 28.46027 | -96.37034 | 31876 ft | 418 kts | 222° |
| 2026-04-26 17:01 | 28.41255 | -96.40759 | 31872 ft | 418 kts | 222° |
| 2026-04-26 17:02 | 28.36453 | -96.44503 | 31871 ft | 418 kts | 222° |
| 2026-04-26 17:02 | 28.31655 | -96.48241 | 31874 ft | 418 kts | 222° |
| 2026-04-26 17:03 | 28.26857 | -96.51973 | 31866 ft | 418 kts | 222° |
| 2026-04-26 17:03 | 28.22044 | -96.55714 | 31866 ft | 418 kts | 222° |
| 2026-04-26 17:04 | 28.17245 | -96.59440 | 31866 ft | 418 kts | 222° |
| 2026-04-26 17:04 | 28.12465 | -96.63146 | 31865 ft | 418 kts | 222° |
| 2026-04-26 17:05 | 28.07643 | -96.66881 | 31863 ft | 419 kts | 222° |
| 2026-04-26 17:05 | 28.02859 | -96.70583 | 31871 ft | 418 kts | 222° |
| 2026-04-26 17:06 | 27.98043 | -96.74304 | 31871 ft | 419 kts | 222° |
| 2026-04-26 17:06 | 27.93244 | -96.78010 | 31871 ft | 419 kts | 222° |
| 2026-04-26 17:07 | 27.88422 | -96.81728 | 31879 ft | 419 kts | 222° |
| 2026-04-26 17:07 | 27.83600 | -96.85443 | 31887 ft | 418 kts | 222° |
| 2026-04-26 17:08 | 27.78779 | -96.89152 | 31892 ft | 419 kts | 222° |
| 2026-04-26 17:08 | 27.73985 | -96.92838 | 31892 ft | 418 kts | 222° |
| 2026-04-26 17:09 | 27.69913 | -96.95964 | 31897 ft | 419 kts | 222° |
| 2026-04-26 17:09 | 27.64288 | -97.00278 | 31897 ft | 419 kts | 222° |
| 2026-04-26 17:10 | 27.59442 | -97.03992 | 31876 ft | 419 kts | 222° |
| 2026-04-26 17:10 | 27.54586 | -97.07708 | 31878 ft | 419 kts | 221° |
| 2026-04-26 17:11 | 27.49716 | -97.11431 | 31872 ft | 419 kts | 221° |
| 2026-04-26 17:11 | 27.44919 | -97.15095 | 31868 ft | 419 kts | 221° |
| 2026-04-26 17:12 | 27.37666 | -97.20625 | 31864 ft | 419 kts | 221° |
| 2026-04-26 17:13 | 27.30436 | -97.26130 | 31848 ft | 419 kts | 221° |
| 2026-04-26 17:14 | 27.23183 | -97.31644 | 31839 ft | 419 kts | 221° |
| 2026-04-26 17:14 | 27.15903 | -97.37168 | 31837 ft | 419 kts | 221° |
| 2026-04-26 17:15 | 27.08641 | -97.42671 | 31832 ft | 419 kts | 221° |
| 2026-04-26 17:16 | 27.03829 | -97.46313 | 31839 ft | 419 kts | 221° |
| 2026-04-26 17:16 | 26.99013 | -97.49954 | 31835 ft | 419 kts | 221° |
| 2026-04-26 17:17 | 26.94136 | -97.53636 | 31829 ft | 419 kts | 221° |
| 2026-04-26 17:17 | 26.89287 | -97.57294 | 31833 ft | 419 kts | 221° |
| 2026-04-26 17:18 | 26.84455 | -97.60936 | 31832 ft | 419 kts | 221° |
| 2026-04-26 17:18 | 26.79612 | -97.64581 | 31828 ft | 419 kts | 221° |
| 2026-04-26 17:19 | 26.72315 | -97.70067 | 31829 ft | 420 kts | 221° |
| 2026-04-26 17:19 | 26.67473 | -97.73702 | 31823 ft | 419 kts | 221° |
| 2026-04-26 17:20 | 26.64261 | -97.76112 | 31826 ft | 420 kts | 221° |
| 2026-04-26 17:20 | 26.57795 | -97.80958 | 31821 ft | 419 kts | 220° |
| 2026-04-26 17:21 | 26.52960 | -97.84576 | 31835 ft | 420 kts | 220° |
| 2026-04-26 17:21 | 26.48092 | -97.88215 | 31829 ft | 420 kts | 220° |
| 2026-04-26 17:22 | 26.43225 | -97.91851 | 31836 ft | 420 kts | 220° |
| 2026-04-26 17:22 | 26.38391 | -97.95458 | 31836 ft | 420 kts | 220° |
| 2026-04-26 17:23 | 26.33519 | -97.99090 | 31838 ft | 420 kts | 220° |
| 2026-04-26 17:23 | 26.28684 | -98.02690 | 31846 ft | 420 kts | 220° |
| 2026-04-26 17:24 | 26.23815 | -98.06312 | 31850 ft | 420 kts | 220° |
| 2026-04-26 17:24 | 26.18951 | -98.09926 | 31851 ft | 420 kts | 220° |
| 2026-04-26 17:25 | 26.14896 | -98.12937 | 31851 ft | 421 kts | 220° |
| 2026-04-26 17:25 | 26.09221 | -98.17145 | 31851 ft | 421 kts | 220° |
| 2026-04-26 17:26 | 26.04343 | -98.20766 | 31850 ft | 420 kts | 222° |
| 2026-04-26 17:26 | 26.00353 | -98.25283 | 31854 ft | 404 kts | 242° |
| 2026-04-26 17:27 | 25.98287 | -98.30891 | 31853 ft | 392 kts | 263° |
| 2026-04-26 17:27 | 25.98291 | -98.36896 | 31480 ft | 389 kts | 278° |
| 2026-04-26 17:28 | 25.98665 | -98.39871 | 31098 ft | 389 kts | 278° |
| 2026-04-26 17:28 | 25.99039 | -98.42849 | 30720 ft | 390 kts | 278° |
| 2026-04-26 17:28 | 25.99372 | -98.45860 | 30345 ft | 392 kts | 277° |
| 2026-04-26 17:28 | 25.99672 | -98.48880 | 29905 ft | 394 kts | 276° |
| 2026-04-26 17:29 | 25.99953 | -98.51920 | 29372 ft | 394 kts | 276° |
| 2026-04-26 17:29 | 26.00040 | -98.52906 | 29196 ft | 394 kts | 276° |
| 2026-04-26 17:29 | 26.00460 | -98.57925 | 28316 ft | 388 kts | 276° |
| 2026-04-26 17:29 | 26.00629 | -98.60915 | 27793 ft | 385 kts | 271° |
| 2026-04-26 17:30 | 26.00627 | -98.63884 | 27289 ft | 383 kts | 271° |
| 2026-04-26 17:30 | 26.00602 | -98.66844 | 26793 ft | 381 kts | 270° |
| 2026-04-26 17:30 | 26.00566 | -98.69784 | 26303 ft | 379 kts | 270° |
| 2026-04-26 17:30 | 26.00528 | -98.72666 | 25831 ft | 376 kts | 270° |
| 2026-04-26 17:31 | 26.00489 | -98.75572 | 25361 ft | 374 kts | 270° |
| 2026-04-26 17:31 | 26.00451 | -98.78470 | 24894 ft | 372 kts | 270° |
| 2026-04-26 17:31 | 26.00413 | -98.81340 | 24441 ft | 370 kts | 270° |
| 2026-04-26 17:31 | 26.00375 | -98.84188 | 23987 ft | 368 kts | 270° |
| 2026-04-26 17:32 | 26.00336 | -98.87036 | 23551 ft | 367 kts | 270° |
| 2026-04-26 17:32 | 26.00310 | -98.88911 | 23280 ft | 365 kts | 270° |
| 2026-04-26 17:32 | 26.00272 | -98.91723 | 23022 ft | 363 kts | 270° |
| 2026-04-26 17:32 | 26.00232 | -98.94554 | 22804 ft | 364 kts | 270° |
| 2026-04-26 17:33 | 26.00192 | -98.97373 | 22602 ft | 364 kts | 270° |
| 2026-04-26 17:33 | 26.00151 | -99.00166 | 22403 ft | 364 kts | 270° |
| 2026-04-26 17:33 | 26.00110 | -99.02975 | 22206 ft | 363 kts | 270° |
| 2026-04-26 17:34 | 26.00027 | -99.08552 | 21798 ft | 362 kts | 270° |
| 2026-04-26 17:34 | 25.99985 | -99.11329 | 21639 ft | 361 kts | 270° |
| 2026-04-26 17:34 | 25.99942 | -99.14114 | 21538 ft | 361 kts | 270° |
| 2026-04-26 17:34 | 25.99894 | -99.16873 | 21446 ft | 361 kts | 269° |
| 2026-04-26 17:35 | 25.99665 | -99.19626 | 21226 ft | 362 kts | 263° |
| 2026-04-26 17:35 | 25.99250 | -99.22416 | 21000 ft | 361 kts | 261° |
| 2026-04-26 17:35 | 25.98649 | -99.25124 | 20776 ft | 362 kts | 254° |
| 2026-04-26 17:35 | 25.97875 | -99.27785 | 20506 ft | 361 kts | 253° |
| 2026-04-26 17:36 | 25.97071 | -99.30435 | 20202 ft | 361 kts | 253° |
| 2026-04-26 17:36 | 25.96261 | -99.33077 | 19861 ft | 359 kts | 253° |
| 2026-04-26 17:36 | 25.95457 | -99.35696 | 19536 ft | 358 kts | 252° |
| 2026-04-26 17:36 | 25.94651 | -99.38317 | 19210 ft | 357 kts | 252° |
| 2026-04-26 17:37 | 25.93859 | -99.40891 | 18914 ft | 356 kts | 252° |
| 2026-04-26 17:37 | 25.93057 | -99.43499 | 18618 ft | 355 kts | 252° |
| 2026-04-26 17:37 | 25.92257 | -99.46098 | 18324 ft | 355 kts | 252° |
| 2026-04-26 17:38 | 25.90662 | -99.51276 | 17688 ft | 352 kts | 252° |
| 2026-04-26 17:38 | 25.89869 | -99.53848 | 17356 ft | 350 kts | 252° |
| 2026-04-26 17:38 | 25.89080 | -99.56403 | 17094 ft | 348 kts | 252° |
| 2026-04-26 17:38 | 25.88296 | -99.58942 | 16939 ft | 347 kts | 252° |
| 2026-04-26 17:39 | 25.87521 | -99.61450 | 16919 ft | 347 kts | 252° |
| 2026-04-26 17:39 | 25.86440 | -99.63861 | 16848 ft | 350 kts | 238° |
| 2026-04-26 17:39 | 25.84907 | -99.65976 | 16777 ft | 352 kts | 229° |
| 2026-04-26 17:39 | 25.83159 | -99.67881 | 16707 ft | 352 kts | 224° |
| 2026-04-26 17:40 | 25.81177 | -99.69507 | 16651 ft | 354 kts | 217° |
| 2026-04-26 17:40 | 25.79932 | -99.70658 | 16582 ft | 351 kts | 230° |
| 2026-04-26 17:40 | 25.78518 | -99.73798 | 16492 ft | 346 kts | 261° |
| 2026-04-26 17:40 | 25.78603 | -99.76437 | 16412 ft | 345 kts | 284° |
| 2026-04-26 17:41 | 25.79686 | -99.78817 | 16314 ft | 348 kts | 307° |
| 2026-04-26 17:41 | 25.81390 | -99.80746 | 16209 ft | 350 kts | 314° |
| 2026-04-26 17:41 | 25.83157 | -99.82624 | 16041 ft | 349 kts | 313° |
| 2026-04-26 17:41 | 25.84734 | -99.84654 | 15860 ft | 346 kts | 303° |
| 2026-04-26 17:42 | 25.86066 | -99.86849 | 15694 ft | 347 kts | 302° |
| 2026-04-26 17:42 | 25.87363 | -99.89079 | 15502 ft | 339 kts | 301° |
| 2026-04-26 17:42 | 25.88616 | -99.91267 | 15310 ft | 331 kts | 300° |
| 2026-04-26 17:42 | 25.89825 | -99.93384 | 15116 ft | 325 kts | 300° |
| 2026-04-26 17:43 | 25.91030 | -99.95499 | 14913 ft | 320 kts | 300° |
| 2026-04-26 17:43 | 25.92220 | -99.97580 | 14652 ft | 318 kts | 300° |
| 2026-04-26 17:43 | 25.93402 | -99.99648 | 14393 ft | 315 kts | 300° |
| 2026-04-26 17:43 | 25.94576 | -100.01702 | 14117 ft | 314 kts | 300° |
| 2026-04-26 17:44 | 25.95746 | -100.03751 | 13773 ft | 313 kts | 300° |
| 2026-04-26 17:44 | 25.96898 | -100.05770 | 13405 ft | 311 kts | 300° |
| 2026-04-26 17:44 | 25.98060 | -100.07809 | 13026 ft | 306 kts | 300° |
| 2026-04-26 17:44 | 25.99176 | -100.09765 | 12642 ft | 296 kts | 301° |
| 2026-04-26 17:45 | 26.00261 | -100.11668 | 12255 ft | 286 kts | 301° |
| 2026-04-26 17:45 | 26.01312 | -100.13512 | 11856 ft | 278 kts | 301° |
| 2026-04-26 17:45 | 26.02335 | -100.15309 | 11433 ft | 273 kts | 301° |
| 2026-04-26 17:45 | 26.03347 | -100.17085 | 10989 ft | 269 kts | 301° |
| 2026-04-26 17:46 | 26.04332 | -100.18815 | 10562 ft | 266 kts | 301° |
| 2026-04-26 17:46 | 26.05315 | -100.20548 | 10135 ft | 264 kts | 301° |
| 2026-04-26 17:46 | 26.06290 | -100.22274 | 9717 ft | 261 kts | 302° |
| 2026-04-26 17:46 | 26.07241 | -100.23971 | 9286 ft | 253 kts | 301° |
| 2026-04-26 17:47 | 26.08163 | -100.25611 | 8869 ft | 248 kts | 301° |
| 2026-04-26 17:47 | 26.08717 | -100.26716 | 8582 ft | 245 kts | 290° |
| 2026-04-26 17:47 | 26.08673 | -100.29139 | 8000 ft | 240 kts | 245° |
| 2026-04-26 17:47 | 26.07665 | -100.30606 | 7623 ft | 238 kts | 226° |
| 2026-04-26 17:48 | 26.06465 | -100.31869 | 7238 ft | 236 kts | 222° |
| 2026-04-26 17:48 | 26.05057 | -100.32736 | 6829 ft | 236 kts | 194° |
| 2026-04-26 17:48 | 26.03417 | -100.32803 | 6458 ft | 235 kts | 178° |
| 2026-04-26 17:48 | 26.01788 | -100.32645 | 6102 ft | 233 kts | 175° |
| 2026-04-26 17:49 | 26.00187 | -100.32442 | 5753 ft | 230 kts | 175° |
| 2026-04-26 17:49 | 25.98599 | -100.32382 | 5388 ft | 227 kts | 182° |
| 2026-04-26 17:49 | 25.97028 | -100.32440 | 5140 ft | 221 kts | 182° |
| 2026-04-26 17:49 | 25.95518 | -100.32427 | 4988 ft | 214 kts | 179° |
| 2026-04-26 17:50 | 25.94057 | -100.32323 | 4846 ft | 206 kts | 175° |
| 2026-04-26 17:50 | 25.92659 | -100.32121 | 4681 ft | 204 kts | 171° |
| 2026-04-26 17:50 | 25.91284 | -100.31808 | 4529 ft | 199 kts | 166° |
| 2026-04-26 17:50 | 25.90008 | -100.31255 | 4402 ft | 196 kts | 147° |
| 2026-04-26 17:51 | 25.88954 | -100.30299 | 4256 ft | 195 kts | 135° |
| 2026-04-26 17:51 | 25.88018 | -100.29208 | 4099 ft | 194 kts | 133° |
| 2026-04-26 17:51 | 25.87090 | -100.28108 | 3874 ft | 197 kts | 133° |
| 2026-04-26 17:51 | 25.86181 | -100.26959 | 3489 ft | 204 kts | 122° |
| 2026-04-26 17:52 | 25.85648 | -100.25456 | 3018 ft | 210 kts | 109° |
| 2026-04-26 17:52 | 25.85115 | -100.24018 | 2956 ft | 192 kts | 117° |
| 2026-04-26 17:52 | 25.84496 | -100.22793 | 2957 ft | 173 kts | 120° |
| 2026-04-26 17:52 | 25.83885 | -100.21719 | 2950 ft | 156 kts | 122° |
| 2026-04-26 17:53 | 25.83322 | -100.20682 | 2945 ft | 153 kts | 120° |
| 2026-04-26 17:53 | 25.82776 | -100.19633 | 2704 ft | 157 kts | 119° |
| 2026-04-26 17:53 | 25.82244 | -100.18586 | 2468 ft | 160 kts | 120° |
| 2026-04-26 17:54 | 25.81138 | -100.16448 | 2112 ft | 157 kts | 121° |
| 2026-04-26 17:54 | 25.80566 | -100.15405 | 1862 ft | 155 kts | 119° |
| 2026-04-26 17:54 | 25.79999 | -100.14410 | 1741 ft | 149 kts | 120° |
| 2026-04-26 17:54 | 25.79452 | -100.13445 | 1624 ft | 146 kts | 119° |
| 2026-04-26 17:55 | 25.78916 | -100.12551 | 1504 ft | 134 kts | 122° |
| 2026-04-26 17:55 | 25.78418 | -100.11696 | 1326 ft | 129 kts | 120° |
| 2026-04-26 17:55 | 25.77986 | -100.10922 | 1270 ft | 104 kts | 122° |
| 2026-04-26 17:55 | 25.77675 | -100.10368 | 1263 ft | 72 kts | 121° |
| 2026-04-26 17:56 | 25.77434 | -100.09932 | 1258 ft | 50 kts | 121° |
| 2026-04-26 17:56 | 25.77265 | -100.09696 | 1253 ft | 10 kts | 194° |
| 2026-04-26 17:57 | 25.77147 | -100.09793 | 1254 ft | 9 kts | 263° |
| 2026-04-26 17:57 | 25.77172 | -100.09860 | 1256 ft | 10 kts | 301° |
| 2026-04-26 17:57 | 25.77209 | -100.09928 | 1253 ft | 11 kts | 301° |
| 2026-04-26 17:57 | 25.77249 | -100.10000 | 1260 ft | 11 kts | 301° |
| 2026-04-26 17:58 | 25.77385 | -100.10245 | 1265 ft | 13 kts | 303° |
| 2026-04-26 17:59 | 25.77484 | -100.10427 | 1263 ft | 14 kts | 301° |
| 2026-04-26 17:59 | 25.77535 | -100.10520 | 1268 ft | 14 kts | 302° |
| 2026-04-26 17:59 | 25.77587 | -100.10612 | 1268 ft | 14 kts | 302° |
| 2026-04-26 17:59 | 25.77643 | -100.10714 | 1268 ft | 16 kts | 301° |
| 2026-04-26 18:00 | 25.77707 | -100.10828 | 1268 ft | 18 kts | 302° |
| 2026-04-26 18:00 | 25.77772 | -100.10950 | 1269 ft | 19 kts | 302° |
| 2026-04-26 18:00 | 25.77831 | -100.11055 | 1271 ft | 7 kts | 297° |
| 2026-04-26 18:00 | 25.77817 | -100.11096 | 1271 ft | 7 kts | 211° |
| 2026-04-26 18:01 | 25.77767 | -100.11129 | 1271 ft | 10 kts | 211° |
| 2026-04-26 18:01 | 25.77713 | -100.11105 | 1270 ft | 11 kts | 116° |
| 2026-04-26 18:01 | 25.77668 | -100.11024 | 1270 ft | 14 kts | 123° |
| 2026-04-26 18:01 | 25.77594 | -100.10952 | 1269 ft | 16 kts | 162° |
| 2026-04-26 18:02 | 25.77526 | -100.10940 | 1267 ft | 4 kts | 197° |
| 2026-04-26 18:02 | 25.77521 | -100.10946 | 1267 ft | 3 kts | 235° |
| 2026-04-26 18:02 | 25.77513 | -100.11004 | 1267 ft | 6 kts | 272° |
| 2026-04-26 18:02 | 25.77516 | -100.11044 | 1268 ft | 3 kts | 274° |
| 2026-04-26 18:03 | 25.77516 | -100.11050 | 1268 ft | 0 kts | 273° |